createdAt,value
2023-03-20T00:02:27.194Z,10.34
2023-03-20T00:05:00.007Z,10.31
2023-03-20T00:07:32.945Z,10.31
2023-03-20T00:10:06.089Z,10.30
2023-03-20T00:12:39.028Z,10.30
2023-03-20T00:15:24.983Z,10.28
2023-03-20T00:17:58.370Z,10.23
2023-03-20T00:20:31.766Z,10.18
2023-03-20T00:23:05.069Z,10.17
2023-03-20T00:25:38.825Z,10.18
2023-03-20T00:28:36.420Z,10.16
2023-03-20T00:31:21.856Z,10.14
2023-03-20T00:33:56.216Z,10.12
2023-03-20T00:36:30.045Z,10.12
2023-03-20T00:39:03.137Z,10.12
2023-03-20T00:41:42.267Z,10.13
2023-03-20T00:44:23.021Z,10.08
2023-03-20T00:46:57.931Z,10.10
2023-03-20T00:49:32.612Z,10.08
2023-03-20T00:52:06.894Z,10.12
2023-03-20T00:54:39.467Z,10.15
2023-03-20T00:57:17.977Z,10.17
2023-03-20T00:59:58.284Z,10.16
2023-03-20T01:02:32.451Z,10.22
2023-03-20T01:05:06.789Z,10.26
2023-03-20T01:07:39.712Z,10.28
2023-03-20T01:10:14.569Z,10.32
2023-03-20T01:12:49.083Z,10.35
2023-03-20T01:15:24.629Z,10.38
2023-03-20T01:17:57.391Z,10.37
2023-03-20T01:20:32.360Z,10.34
2023-03-20T01:23:04.774Z,10.37
2023-03-20T01:25:38.044Z,10.42
2023-03-20T01:28:18.368Z,10.43
2023-03-20T01:30:52.827Z,10.39
2023-03-20T01:33:27.870Z,10.43
2023-03-20T01:36:01.214Z,10.47
2023-03-20T01:38:34.059Z,10.48
2023-03-20T01:41:12.455Z,10.52
2023-03-20T01:43:46.637Z,10.49
2023-03-20T01:46:24.653Z,10.52
2023-03-20T01:49:08.556Z,10.52
2023-03-20T01:51:41.432Z,10.54
2023-03-20T01:54:23.023Z,10.57
2023-03-20T01:57:06.803Z,10.58
2023-03-20T01:59:43.511Z,10.59
2023-03-20T02:02:20.920Z,10.63
2023-03-20T02:12:39.365Z,10.77
2023-03-20T02:15:18.231Z,10.74
2023-03-20T02:18:10.304Z,10.78
2023-03-20T02:21:03.211Z,10.81
2023-03-20T02:24:02.481Z,10.80
2023-03-20T02:26:51.755Z,10.82
2023-03-20T02:30:01.638Z,10.85
2023-03-20T02:33:09.471Z,10.77
2023-03-20T02:36:06.203Z,10.77
2023-03-20T02:39:00.756Z,10.83
2023-03-20T02:41:41.280Z,10.90
2023-03-20T02:44:21.336Z,10.89
2023-03-20T02:47:04.574Z,10.93
2023-03-20T02:49:57.541Z,10.98
2023-03-20T02:52:41.470Z,11.02
2023-03-20T02:55:23.356Z,11.06
2023-03-20T02:58:04.155Z,11.06
2023-03-20T03:00:39.724Z,11.10
2023-03-20T03:03:18.523Z,11.11
2023-03-20T03:05:56.475Z,10.97
2023-03-20T03:08:35.473Z,11.15
2023-03-20T03:11:10.536Z,11.13
2023-03-20T03:13:46.779Z,11.16
2023-03-20T03:16:24.400Z,11.15
2023-03-20T03:19:05.204Z,11.16
2023-03-20T03:21:40.463Z,11.09
2023-03-20T03:24:39.238Z,11.08
2023-03-20T03:27:18.862Z,11.16
2023-03-20T03:29:55.203Z,11.18
2023-03-20T03:32:31.308Z,11.16
2023-03-20T03:35:07.084Z,11.19
2023-03-20T03:37:49.643Z,11.20
2023-03-20T03:40:29.263Z,11.19
2023-03-20T03:43:08.329Z,11.21
2023-03-20T03:45:46.861Z,11.14
2023-03-20T03:48:24.492Z,11.16
2023-03-20T03:51:01.934Z,11.12
2023-03-20T03:53:37.832Z,11.23
2023-03-20T03:56:16.527Z,11.23
2023-03-20T03:58:53.941Z,11.27
2023-03-20T04:01:28.033Z,11.26
2023-03-20T04:04:04.796Z,11.28
2023-03-20T04:06:37.951Z,11.27
2023-03-20T04:09:10.754Z,11.12
2023-03-20T04:11:44.834Z,11.20
2023-03-20T04:14:18.061Z,11.25
2023-03-20T04:16:50.987Z,11.25
2023-03-20T04:19:23.962Z,11.26
2023-03-20T04:21:57.021Z,11.26
2023-03-20T04:24:30.588Z,11.27
2023-03-20T04:27:04.598Z,11.28
2023-03-20T04:29:39.320Z,11.30
2023-03-20T04:32:31.290Z,11.32
2023-03-20T04:35:10.295Z,11.31
2023-03-20T04:37:53.401Z,11.29
2023-03-20T04:40:26.985Z,11.22
2023-03-20T04:42:59.870Z,11.29
2023-03-20T04:45:32.589Z,11.24
2023-03-20T04:48:05.868Z,11.33
2023-03-20T04:50:38.719Z,11.34
2023-03-20T04:53:12.688Z,11.28
2023-03-20T04:55:46.738Z,11.27
2023-03-20T04:58:20.195Z,11.29
2023-03-20T05:00:53.072Z,11.28
2023-03-20T05:03:29.266Z,11.29
2023-03-20T05:06:02.752Z,11.32
2023-03-20T05:08:36.915Z,11.32
2023-03-20T05:11:09.623Z,11.31
2023-03-20T05:13:54.319Z,11.31
2023-03-20T05:16:29.790Z,11.15
2023-03-20T05:19:35.637Z,11.30
2023-03-20T05:22:37.091Z,11.30
2023-03-20T05:25:21.292Z,11.27
2023-03-20T05:28:13.376Z,11.24
2023-03-20T05:30:57.173Z,11.26
2023-03-20T05:33:30.801Z,11.26
2023-03-20T05:36:19.010Z,11.23
2023-03-20T05:39:00.616Z,11.24
2023-03-20T05:41:48.609Z,11.27
2023-03-20T05:44:46.610Z,11.28
2023-03-20T05:47:57.684Z,11.31
2023-03-20T05:50:32.846Z,11.31
2023-03-20T05:53:28.757Z,11.32
2023-03-20T05:56:20.512Z,11.30
2023-03-20T05:59:17.384Z,11.35
2023-03-20T06:02:13.716Z,11.37
2023-03-20T06:04:51.544Z,11.37
2023-03-20T06:07:47.457Z,11.39
2023-03-20T06:10:22.345Z,11.40
2023-03-20T06:12:55.209Z,11.41
2023-03-20T06:15:32.404Z,11.42
2023-03-20T06:18:13.237Z,11.43
2023-03-20T06:20:53.005Z,11.38
2023-03-20T06:23:28.876Z,11.48
2023-03-20T06:26:02.507Z,11.50
2023-03-20T06:28:36.776Z,11.49
2023-03-20T06:31:12.721Z,11.54
2023-03-20T06:33:46.175Z,11.56
2023-03-20T06:36:18.938Z,11.56
2023-03-20T06:38:52.162Z,11.57
2023-03-20T06:41:34.394Z,11.63
2023-03-20T06:44:10.701Z,11.63
2023-03-20T06:47:02.593Z,11.66
2023-03-20T06:49:36.747Z,11.70
2023-03-20T06:52:16.580Z,11.72
2023-03-20T06:54:51.279Z,11.73
2023-03-20T06:57:24.741Z,11.73
2023-03-20T06:59:58.014Z,11.71
2023-03-20T07:02:31.360Z,11.76
2023-03-20T07:05:04.725Z,11.78
2023-03-20T07:07:38.151Z,11.78
2023-03-20T07:10:12.576Z,11.76
2023-03-20T07:12:47.296Z,11.80
2023-03-20T07:15:21.077Z,11.80
2023-03-20T07:17:55.028Z,11.83
2023-03-20T07:20:28.178Z,11.88
2023-03-20T07:23:01.537Z,11.89
2023-03-20T07:25:42.867Z,11.92
2023-03-20T07:28:20.795Z,11.94
2023-03-20T07:30:57.305Z,12.00
2023-03-20T07:33:30.883Z,12.03
2023-03-20T07:36:03.817Z,12.07
2023-03-20T07:38:37.149Z,12.12
2023-03-20T07:41:13.775Z,12.14
2023-03-20T07:43:50.373Z,12.10
2023-03-20T07:46:49.783Z,12.20
2023-03-20T07:49:22.479Z,12.18
2023-03-20T07:51:57.031Z,12.20
2023-03-20T07:54:29.948Z,12.30
2023-03-20T07:57:03.635Z,12.23
2023-03-20T07:59:37.181Z,12.41
2023-03-20T08:02:12.390Z,12.33
2023-03-20T08:04:46.542Z,12.32
2023-03-20T08:07:19.615Z,12.23
2023-03-20T08:09:52.688Z,12.44
2023-03-20T08:12:25.446Z,12.35
2023-03-20T08:14:58.601Z,12.31
2023-03-20T08:17:31.492Z,12.44
2023-03-20T08:20:04.419Z,12.54
2023-03-20T08:22:37.075Z,12.60
2023-03-20T08:25:11.919Z,12.58
2023-03-20T08:27:44.996Z,12.51
2023-03-20T08:30:18.685Z,12.54
2023-03-20T08:32:51.839Z,12.77
2023-03-20T08:35:32.868Z,12.75
2023-03-20T08:38:06.118Z,12.91
2023-03-20T08:40:41.570Z,12.97
2023-03-20T08:43:14.000Z,13.03
2023-03-20T08:45:47.181Z,13.06
2023-03-20T08:48:19.852Z,13.04
2023-03-20T08:50:52.823Z,13.11
2023-03-20T08:53:25.957Z,13.22
2023-03-20T08:55:58.702Z,13.15
2023-03-20T08:58:31.604Z,13.16
2023-03-20T09:01:09.421Z,13.07
2023-03-20T09:03:42.479Z,12.85
2023-03-20T09:06:15.860Z,12.81
2023-03-20T09:08:48.428Z,12.78
2023-03-20T09:11:20.907Z,12.92
2023-03-20T09:13:53.761Z,13.18
2023-03-20T09:16:26.722Z,13.25
2023-03-20T09:18:59.785Z,13.21
2023-03-20T09:21:32.272Z,13.12
2023-03-20T09:24:04.980Z,13.02
2023-03-20T09:26:37.665Z,13.09
2023-03-20T09:29:10.926Z,13.16
2023-03-20T09:31:43.993Z,13.22
2023-03-20T09:34:17.014Z,13.28
2023-03-20T09:36:49.745Z,13.26
2023-03-20T09:39:22.234Z,13.31
2023-03-20T09:41:57.852Z,13.27
2023-03-20T09:44:42.675Z,13.29
2023-03-20T09:47:21.614Z,13.22
2023-03-20T09:50:08.617Z,13.33
2023-03-20T09:52:47.332Z,13.41
2023-03-20T09:55:23.143Z,13.42
2023-03-20T09:57:58.974Z,13.47
2023-03-20T10:00:36.149Z,13.53
2023-03-20T10:03:17.068Z,13.56
2023-03-20T10:05:55.739Z,13.58
2023-03-20T10:08:32.668Z,13.60
2023-03-20T10:11:26.078Z,13.80
2023-03-20T10:14:16.692Z,13.83
2023-03-20T10:17:02.977Z,14.00
2023-03-20T10:19:44.143Z,14.03
2023-03-20T10:22:26.054Z,14.15
2023-03-20T10:25:04.495Z,14.18
2023-03-20T10:27:41.366Z,14.29
2023-03-20T10:30:33.423Z,14.40
2023-03-20T10:33:22.531Z,14.58
2023-03-20T10:36:09.760Z,14.53
2023-03-20T10:38:49.791Z,14.69
2023-03-20T10:41:26.319Z,14.75
2023-03-20T10:44:02.084Z,14.78
2023-03-20T10:46:39.667Z,14.69
2023-03-20T10:49:18.145Z,14.89
2023-03-20T10:51:54.216Z,15.07
2023-03-20T10:54:32.390Z,14.97
2023-03-20T10:57:07.406Z,15.02
2023-03-20T10:59:43.596Z,15.12
2023-03-20T11:02:18.050Z,15.20
2023-03-20T11:04:51.623Z,15.27
2023-03-20T11:07:28.608Z,15.35
2023-03-20T11:10:17.299Z,15.43
2023-03-20T11:12:52.456Z,15.42
2023-03-20T11:15:30.011Z,15.47
2023-03-20T11:18:04.781Z,15.61
2023-03-20T11:20:37.162Z,15.85
2023-03-20T11:23:16.970Z,15.96
2023-03-20T11:25:58.723Z,15.94
2023-03-20T11:28:35.060Z,16.14
2023-03-20T11:31:18.170Z,16.14
2023-03-20T11:33:55.096Z,16.11
2023-03-20T11:36:31.406Z,16.25
2023-03-20T11:39:13.583Z,16.24
2023-03-20T11:41:52.182Z,16.50
2023-03-20T11:44:30.128Z,16.59
2023-03-20T11:47:05.480Z,16.56
2023-03-20T11:49:50.574Z,16.49
2023-03-20T11:52:23.972Z,16.59
2023-03-20T11:54:59.398Z,16.66
2023-03-20T11:57:38.016Z,16.71
2023-03-20T12:00:22.977Z,16.56
2023-03-20T12:02:55.721Z,16.52
2023-03-20T12:05:35.613Z,16.60
2023-03-20T12:08:17.585Z,16.87
2023-03-20T12:10:58.062Z,16.92
2023-03-20T12:13:34.386Z,17.07
2023-03-20T12:16:13.172Z,17.12
2023-03-20T12:18:48.053Z,16.95
2023-03-20T12:21:23.474Z,16.84
2023-03-20T12:24:01.858Z,16.65
2023-03-20T12:26:38.968Z,16.49
2023-03-20T12:29:20.273Z,16.51
2023-03-20T12:31:56.609Z,16.37
2023-03-20T12:34:36.361Z,16.42
2023-03-20T12:37:13.745Z,16.61
2023-03-20T12:39:51.084Z,16.71
2023-03-20T12:42:39.344Z,16.60
2023-03-20T12:45:16.195Z,16.51
2023-03-20T12:48:06.318Z,16.43
2023-03-20T12:50:41.875Z,16.42
2023-03-20T12:53:40.296Z,16.26
2023-03-20T12:56:24.420Z,16.29
2023-03-20T12:59:04.937Z,16.15
2023-03-20T13:01:42.330Z,16.18
2023-03-20T13:04:48.044Z,16.12
2023-03-20T13:07:23.272Z,16.09
2023-03-20T13:10:10.413Z,16.08
2023-03-20T13:12:55.124Z,16.05
2023-03-20T13:15:38.022Z,15.95
2023-03-20T13:18:17.038Z,15.86
2023-03-20T13:20:53.685Z,15.89
2023-03-20T13:23:32.160Z,15.85
2023-03-20T13:26:17.374Z,15.78
2023-03-20T13:28:57.327Z,15.80
2023-03-20T13:31:49.507Z,15.62
2023-03-20T13:34:34.501Z,15.49
2023-03-20T13:37:26.388Z,15.46
2023-03-20T13:40:07.304Z,15.63
2023-03-20T13:42:44.487Z,15.63
2023-03-20T13:45:29.905Z,15.68
2023-03-20T13:48:22.552Z,15.62
2023-03-20T13:51:06.882Z,15.57
2023-03-20T13:53:49.657Z,15.61
2023-03-20T13:56:33.066Z,15.57
2023-03-20T13:59:32.528Z,15.62
2023-03-20T14:02:18.985Z,15.56
2023-03-20T14:04:56.871Z,15.54
2023-03-20T14:07:38.164Z,15.47
2023-03-20T14:10:40.914Z,15.63
2023-03-20T14:13:19.761Z,15.67
2023-03-20T14:15:57.948Z,15.71
2023-03-20T14:18:31.612Z,15.52
2023-03-20T14:21:10.698Z,15.71
2023-03-20T14:23:47.279Z,15.44
2023-03-20T14:26:27.113Z,15.33
2023-03-20T14:29:02.858Z,15.35
2023-03-20T14:31:38.526Z,15.47
2023-03-20T14:34:24.735Z,15.40
2023-03-20T14:37:02.016Z,15.27
2023-03-20T14:39:52.924Z,15.26
2023-03-20T14:42:41.233Z,15.30
2023-03-20T14:45:30.764Z,15.08
2023-03-20T14:48:09.839Z,15.06
2023-03-20T14:50:52.642Z,15.19
2023-03-20T14:53:27.804Z,15.13
2023-03-20T14:56:12.831Z,14.95
2023-03-20T14:58:58.042Z,14.85
2023-03-20T15:04:33.295Z,14.70
2023-03-20T15:07:11.834Z,14.61
2023-03-20T15:09:47.398Z,14.58
2023-03-20T15:12:24.491Z,14.48
2023-03-20T15:14:59.882Z,14.36
2023-03-20T15:17:40.434Z,14.33
2023-03-20T15:20:19.278Z,14.22
2023-03-20T15:22:56.267Z,14.14
2023-03-20T15:25:33.748Z,14.14
2023-03-20T15:28:08.415Z,13.94
2023-03-20T15:30:42.237Z,13.83
2023-03-20T15:33:21.199Z,13.88
2023-03-20T15:35:54.805Z,13.97
2023-03-20T15:38:34.148Z,13.81
2023-03-20T15:41:09.885Z,13.70
2023-03-20T15:43:43.484Z,13.73
2023-03-20T15:46:18.481Z,13.78
2023-03-20T15:48:52.145Z,13.77
2023-03-20T15:51:31.306Z,13.67
2023-03-20T15:54:08.041Z,13.72
2023-03-20T15:56:43.988Z,13.64
2023-03-20T15:59:19.218Z,13.73
2023-03-20T16:01:56.852Z,13.72
2023-03-20T16:04:29.941Z,13.68
2023-03-20T16:07:04.172Z,13.72
2023-03-20T16:09:46.741Z,13.73
2023-03-20T16:12:21.009Z,13.65
2023-03-20T16:14:55.197Z,13.55
2023-03-20T16:17:28.517Z,13.63
2023-03-20T16:20:01.590Z,13.70
2023-03-20T16:22:35.304Z,13.71
2023-03-20T16:25:14.028Z,13.65
2023-03-20T16:27:50.847Z,13.67
2023-03-20T16:30:27.800Z,13.68
2023-03-20T16:33:03.598Z,13.52
2023-03-20T16:35:41.082Z,13.56
2023-03-20T16:38:27.096Z,13.53
2023-03-20T16:41:16.252Z,13.61
2023-03-20T16:43:52.959Z,13.61
2023-03-20T16:46:27.776Z,13.67
2023-03-20T16:48:59.305Z,13.65
2023-03-20T16:51:33.231Z,13.50
2023-03-20T16:54:06.946Z,13.57
2023-03-20T16:56:40.655Z,13.55
2023-03-20T16:59:19.262Z,13.52
2023-03-20T17:01:54.367Z,13.53
2023-03-20T17:04:35.113Z,13.44
2023-03-20T17:07:15.606Z,13.47
2023-03-20T17:10:00.421Z,13.47
2023-03-20T17:12:37.068Z,13.49
2023-03-20T17:15:11.276Z,13.45
2023-03-20T17:17:44.529Z,13.49
2023-03-20T17:20:23.110Z,13.41
2023-03-20T17:22:56.006Z,13.50
2023-03-20T17:25:29.541Z,13.46
2023-03-20T17:28:02.868Z,13.45
2023-03-20T17:30:35.896Z,13.40
2023-03-20T17:33:12.848Z,13.47
2023-03-20T17:35:46.213Z,13.49
2023-03-20T17:38:23.733Z,13.50
2023-03-20T17:40:56.649Z,13.48
2023-03-20T17:43:29.458Z,13.48
2023-03-20T17:46:02.455Z,13.51
2023-03-20T17:48:35.354Z,13.49
2023-03-20T17:51:08.667Z,13.44
2023-03-20T17:53:41.676Z,13.40
2023-03-20T17:56:17.057Z,13.31
2023-03-20T17:58:50.588Z,13.29
2023-03-20T18:01:23.749Z,13.35
2023-03-20T18:03:56.400Z,13.38
2023-03-20T18:06:31.862Z,13.28
2023-03-20T18:09:04.889Z,13.36
2023-03-20T18:11:38.462Z,13.28
2023-03-20T18:14:12.470Z,13.26
2023-03-20T18:16:45.147Z,13.23
2023-03-20T18:19:25.837Z,13.22
2023-03-20T18:21:58.843Z,13.28
2023-03-20T18:24:31.552Z,13.28
2023-03-20T18:27:04.702Z,13.25
2023-03-20T18:29:37.323Z,13.14
2023-03-20T18:32:10.482Z,13.10
2023-03-20T18:34:43.117Z,13.00
2023-03-20T18:37:17.107Z,13.03
2023-03-20T18:39:49.773Z,12.99
2023-03-20T18:42:22.720Z,12.82
2023-03-20T18:44:55.525Z,12.75
2023-03-20T18:47:28.148Z,12.78
2023-03-20T18:50:00.561Z,12.79
2023-03-20T18:52:33.670Z,12.83
2023-03-20T18:55:06.839Z,12.86
2023-03-20T18:57:43.021Z,12.73
2023-03-20T19:00:23.200Z,12.93
2023-03-20T19:02:57.662Z,12.84
2023-03-20T19:05:31.362Z,12.78
2023-03-20T19:08:04.474Z,12.75
2023-03-20T19:10:39.798Z,12.72
2023-03-20T19:13:16.319Z,12.77
2023-03-20T19:15:49.183Z,12.81
2023-03-20T19:18:23.472Z,12.70
2023-03-20T19:20:57.564Z,12.72
2023-03-20T19:23:30.057Z,12.74
2023-03-20T19:26:02.931Z,12.70
2023-03-20T19:28:40.553Z,12.71
2023-03-20T19:31:14.730Z,12.74
2023-03-20T19:33:47.533Z,12.72
2023-03-20T19:36:27.493Z,12.73
2023-03-20T19:39:02.058Z,12.67
2023-03-20T19:41:35.345Z,12.59
2023-03-20T19:44:08.874Z,12.64
2023-03-20T19:46:42.479Z,12.72
2023-03-20T19:49:23.555Z,12.76
2023-03-20T19:52:07.145Z,12.82
2023-03-20T19:54:52.999Z,12.86
2023-03-20T19:57:34.631Z,12.85
2023-03-20T20:01:11.070Z,12.86
2023-03-20T20:03:03.181Z,12.89
2023-03-20T20:05:39.484Z,12.93
2023-03-20T20:08:25.958Z,12.92
2023-03-20T20:11:02.901Z,12.86
2023-03-20T20:13:50.658Z,12.87
2023-03-20T20:16:29.410Z,12.87
2023-03-20T20:19:02.595Z,12.90
2023-03-20T20:24:28.739Z,12.71
2023-03-20T20:27:16.294Z,12.66
2023-03-20T20:29:53.012Z,12.59
2023-03-20T20:32:28.349Z,12.56
2023-03-20T20:40:50.795Z,12.26
2023-03-20T20:43:50.769Z,12.14
2023-03-20T20:46:16.500Z,12.14
2023-03-20T20:48:50.448Z,12.28
2023-03-20T20:51:23.301Z,12.30
2023-03-20T20:53:56.121Z,12.28
2023-03-20T20:56:29.233Z,12.29
2023-03-20T20:59:01.989Z,12.32
2023-03-20T21:01:34.781Z,12.30
2023-03-20T21:04:08.183Z,12.30
2023-03-20T21:09:35.382Z,12.40
2023-03-20T21:12:10.601Z,12.38
2023-03-20T21:14:43.760Z,12.32
2023-03-20T21:17:16.762Z,12.42
2023-03-20T21:19:49.957Z,12.51
2023-03-20T21:22:22.552Z,12.48
2023-03-20T21:25:07.239Z,12.52
2023-03-20T21:27:46.464Z,12.47
2023-03-20T21:30:21.536Z,12.54
2023-03-20T21:32:54.089Z,12.57
2023-03-20T21:35:27.439Z,12.62
2023-03-20T21:40:52.864Z,12.50
2023-03-20T21:43:27.190Z,12.63
2023-03-20T21:46:41.238Z,12.72
2023-03-20T21:49:47.837Z,12.71
2023-03-20T21:52:42.672Z,12.65
2023-03-20T22:01:21.760Z,12.41
2023-03-20T22:03:37.006Z,12.32
2023-03-20T22:09:58.402Z,12.40
2023-03-20T22:12:50.027Z,12.35
2023-03-20T22:18:28.828Z,12.30
2023-03-20T22:30:02.717Z,12.24
2023-03-20T22:32:56.443Z,12.27
2023-03-20T22:35:54.427Z,12.37
2023-03-20T22:46:45.648Z,12.48
2023-03-20T22:49:19.412Z,12.45
2023-03-20T22:52:14.787Z,12.49
2023-03-20T22:54:47.421Z,12.41
2023-03-20T22:57:20.641Z,12.30
2023-03-20T22:59:53.327Z,12.44
2023-03-20T23:02:26.224Z,12.46
2023-03-20T23:04:58.978Z,12.49
2023-03-20T23:07:31.847Z,12.46
2023-03-20T23:10:06.202Z,12.49
2023-03-20T23:12:39.584Z,12.38
2023-03-20T23:15:13.257Z,12.47
2023-03-20T23:19:25.407Z,12.50
2023-03-20T23:21:58.376Z,12.40
2023-03-20T23:24:50.226Z,12.37
2023-03-20T23:27:23.965Z,12.44
2023-03-20T23:29:57.160Z,12.39
2023-03-20T23:32:30.181Z,12.42
2023-03-20T23:35:03.127Z,12.37
2023-03-20T23:37:36.382Z,12.32
2023-03-20T23:40:14.656Z,12.39
2023-03-20T23:42:47.596Z,12.22
2023-03-20T23:45:21.647Z,12.33
2023-03-20T23:47:54.467Z,12.35
2023-03-20T23:50:53.465Z,12.33
2023-03-20T23:54:58.596Z,12.28
2023-03-20T23:57:31.831Z,12.18
